Tefft, Indiana
Current Conditions -  °F | °C
As of 1:56 PM on Sunday 21 Dec 2014 (Local Time) from KVPZ Reporting Station
Overcast Overcast  
Wind Chill: 28°   Ceiling: 3900
Heat Index: 35°   Visibility: 8mi
Dew Point: 27°   Wind: 9mph
Humidity: 72%   Direction: 170°S
Pressure: 30.14"   Gusts: NA
Location:  41.2°N, 86.97°W
Report Text: KVPZ 211956Z AUTO 17008KT 8SM OVC039 02/M03 A3014 RMK AO2 SLP215 T00171028 TSNO
Loading
Personal Weather Stations






























Interactive Weather Map New forecast layout! Learn more

10-Day Weather Forecast

Advertisements
Track Severe Weather on mobile